Terminal Aerodrome Forecast
Issued by NWS Springfield, MO

Home | Current Version | Previous Version | Text Only | Print | Product List | Glossary On
Versions: 1 2 3 4 5 6 7 8 9 10 11 12
000
FTUS43 KSGF 280520
TAFSGF
TAF
KSGF 280520Z 2806/2906 15010KT P6SM SCT200
     FM281400 16012G19KT P6SM BKN200
     FM281800 17011KT P6SM BKN200=

USA.gov is the U.S. government's official web portal to all federal, state and local government web resources and services.